Time;durP1;ratioP1;P1;durP2;ratioP2;P2;SDS_P1;SDS_P2;PMS_P1;PMS_P2;Temp;Humidity;BMP_temperature;BMP_pressure;BME280_temperature;BME280_humidity;BME280_pressure;Samples;Min_cycle;Max_cycle;Signal;HPM_P1;HPM_P2
2023/04/13 00:01:12;;;;;;;4.30;2.00;;;;;;;6.05;93.22;99356.63;4996847;28;20026;-88
2023/04/13 00:03:38;;;;;;;4.90;2.00;;;;;;;6.09;93.74;99360.13;4963942;28;20038;-88
2023/04/13 00:06:09;;;;;;;3.92;1.80;;;;;;;6.09;94.48;99378.50;4979833;28;20121;-88
2023/04/13 00:14:06;;;;;;;6.88;1.98;;;;;;;6.14;95.34;99366.28;4347570;22;20053;-65
2023/04/13 00:16:31;;;;;;;4.85;2.10;;;;;;;6.13;95.42;99347.03;4973846;28;20050;-71
2023/04/13 00:18:56;;;;;;;5.65;1.92;;;;;;;6.17;95.24;99364.53;4977148;28;20139;-73
2023/04/13 00:21:24;;;;;;;2.88;1.52;;;;;;;6.21;95.11;99381.16;4977049;28;20070;-72
2023/04/13 00:23:51;;;;;;;2.08;1.60;;;;;;;6.28;94.64;99343.59;4976714;28;20113;-73
2023/04/13 00:26:20;;;;;;;4.18;1.85;;;;;;;6.35;94.22;99371.63;4976940;28;20077;-73
2023/04/13 00:28:46;;;;;;;4.05;1.67;;;;;;;6.35;94.61;99350.63;4944708;28;20375;-72
2023/04/13 00:31:11;;;;;;;5.10;1.67;;;;;;;6.37;95.21;99388.22;4976688;28;20031;-72
2023/04/13 00:33:37;;;;;;;5.13;1.90;;;;;;;6.41;95.14;99348.00;4976834;28;20050;-72
2023/04/13 00:36:02;;;;;;;4.88;2.00;;;;;;;6.50;94.47;99352.41;4976605;28;20114;-72
2023/04/13 00:38:28;;;;;;;5.85;1.90;;;;;;;6.47;95.27;99357.69;4976420;28;20086;-71
2023/04/13 00:40:57;;;;;;;4.35;1.60;;;;;;;6.50;95.81;99362.91;4959839;28;20027;-71
2023/04/13 00:43:22;;;;;;;4.50;2.00;;;;;;;6.51;96.19;99367.31;4976753;28;20035;-71
2023/04/13 00:45:48;;;;;;;6.35;1.92;;;;;;;6.53;96.04;99371.66;4959880;28;20041;-72
2023/04/13 00:48:14;;;;;;;5.15;2.00;;;;;;;6.49;96.39;99361.16;4977376;28;20030;-71
2023/04/13 00:50:41;;;;;;;8.38;1.95;;;;;;;6.47;97.68;99370.78;4976979;28;20565;-73
2023/04/13 00:53:07;;;;;;;8.40;1.98;;;;;;;6.43;97.48;99366.41;4976309;28;20105;-71
2023/04/13 00:55:37;;;;;;;3.42;1.83;;;;;;;6.44;97.66;99368.16;4976304;28;20400;-72
2023/04/13 00:58:02;;;;;;;5.43;2.80;;;;;;;6.44;98.24;99357.66;4976436;28;20035;-72
2023/04/13 01:00:28;;;;;;;3.13;1.55;;;;;;;6.45;98.09;99383.00;4976469;28;20550;-71
2023/04/13 01:02:53;;;;;;;8.93;2.00;;;;;;;6.46;97.98;99364.63;4975024;28;20031;-73
2023/04/13 01:05:20;;;;;;;5.65;1.92;;;;;;;6.44;98.37;99368.16;4976186;28;20023;-73
2023/04/13 01:07:59;;;;;;;3.58;1.52;;;;;;;6.43;98.27;99351.53;4975822;28;20089;-73
2023/04/13 01:10:34;;;;;;;5.43;1.50;;;;;;;6.47;98.57;99360.28;4976092;28;20031;-74
2023/04/13 01:13:06;;;;;;;4.93;1.70;;;;;;;6.48;98.66;99333.19;4976276;28;20185;-74
2023/04/13 01:15:36;;;;;;;4.68;2.03;;;;;;;6.50;98.39;99344.53;4975525;28;20129;-73
2023/04/13 01:18:07;;;;;;;4.35;2.00;;;;;;;6.50;98.59;99355.03;4975870;28;20050;-73
2023/04/13 01:20:35;;;;;;;3.08;1.70;;;;;;;6.50;98.77;99362.91;4976008;28;20038;-73
2023/04/13 01:23:06;;;;;;;5.30;1.88;;;;;;;6.52;99.14;99358.56;4976081;28;20032;-72
2023/04/13 01:25:53;;;;;;;5.57;1.77;;;;;;;6.56;99.51;99369.94;4975898;28;20027;-73
2023/04/13 01:28:21;;;;;;;5.25;1.80;;;;;;;6.55;99.29;99362.91;4975935;28;20029;-73
2023/04/13 01:30:49;;;;;;;3.65;1.80;;;;;;;6.59;98.85;99365.56;4975439;28;20035;-72
2023/04/13 01:33:15;;;;;;;3.80;1.73;;;;;;;6.56;98.64;99360.31;4975925;28;20034;-73
2023/04/13 01:35:42;;;;;;;4.10;1.50;;;;;;;6.61;98.51;99362.97;4975885;28;20031;-73
2023/04/13 01:38:08;;;;;;;5.65;1.85;;;;;;;6.61;98.86;99363.81;4975638;28;20023;-73
2023/04/13 01:40:39;;;;;;;5.68;1.80;;;;;;;6.64;98.73;99384.84;4975496;28;20026;-73
2023/04/13 01:43:06;;;;;;;6.82;1.90;;;;;;;6.62;99.22;99378.69;4975470;28;20481;-72
2023/04/13 01:46:05;;;;;;;6.25;1.60;;;;;;;6.64;99.53;99382.22;4958238;28;20472;-72
2023/04/13 01:48:50;;;;;;;6.10;1.95;;;;;;;6.64;100.00;99389.22;4975280;28;20027;-72
2023/04/13 01:51:19;;;;;;;10.15;2.08;;;;;;;6.60;100.00;99390.94;4975286;28;20069;-73
2023/04/13 01:54:21;;;;;;;5.47;1.55;;;;;;;6.61;100.00;99390.06;4974097;28;20062;-71
2023/04/13 01:56:49;;;;;;;9.88;2.25;;;;;;;6.58;100.00;99400.56;4974820;28;20038;-70
2023/04/13 01:59:18;;;;;;;4.95;1.80;;;;;;;6.57;100.00;99403.19;4975225;28;20023;-70
2023/04/13 02:01:43;;;;;;;5.13;1.90;;;;;;;6.52;100.00;99398.78;4974988;28;20031;-69
2023/04/13 02:04:09;;;;;;;6.72;1.77;;;;;;;6.51;100.00;99399.66;4975046;28;20034;-69
2023/04/13 02:06:39;;;;;;;6.32;2.10;;;;;;;6.50;100.00;99404.88;4975971;28;20054;-70
2023/04/13 02:09:08;;;;;;;4.38;1.80;;;;;;;6.50;100.00;99412.75;4976184;28;20034;-69
2023/04/13 02:11:35;;;;;;;4.72;1.80;;;;;;;6.48;100.00;99414.53;4975768;28;20035;-71
2023/04/13 02:14:01;;;;;;;2.55;1.60;;;;;;;6.48;100.00;99427.63;4975157;28;20023;-70
2023/04/13 02:16:27;;;;;;;6.95;2.25;;;;;;;6.47;100.00;99418.03;4973316;28;20051;-71
2023/04/13 02:18:52;;;;;;;5.43;1.98;;;;;;;6.46;100.00;99432.00;4974904;28;20026;-70
2023/04/13 02:21:17;;;;;;;4.60;1.70;;;;;;;6.47;100.00;99423.28;4974830;28;20027;-72
2023/04/13 02:23:43;;;;;;;6.75;1.80;;;;;;;6.44;100.00;99439.88;4974238;28;20042;-71
2023/04/13 02:26:13;;;;;;;6.85;2.47;;;;;;;6.47;100.00;99452.13;4974663;28;20056;-71
2023/04/13 02:28:39;;;;;;;4.70;1.73;;;;;;;6.45;100.00;99454.72;4975018;28;20460;-72
2023/04/13 02:31:05;;;;;;;6.32;1.67;;;;;;;6.45;100.00;99444.22;4974351;28;20033;-71
2023/04/13 02:33:31;;;;;;;3.42;1.83;;;;;;;6.45;100.00;99448.59;4974632;28;20034;-73
2023/04/13 02:35:58;;;;;;;4.97;1.80;;;;;;;6.44;100.00;99458.22;4974633;28;20030;-72
2023/04/13 02:38:24;;;;;;;7.47;2.80;;;;;;;6.46;100.00;99461.72;4974282;28;20161;-72
2023/04/13 02:41:08;;;;;;;5.45;2.20;;;;;;;6.51;100.00;99467.03;4957319;28;20066;-72
2023/04/13 02:43:34;;;;;;;5.15;1.88;;;;;;;6.49;100.00;99463.50;4974472;28;20030;-72
2023/04/13 02:45:59;;;;;;;6.20;2.10;;;;;;;6.48;100.00;99473.13;4975344;28;20031;-72
2023/04/13 02:48:25;;;;;;;4.18;2.13;;;;;;;6.52;100.00;99481.88;4975381;28;20610;-72
2023/04/13 02:50:52;;;;;;;5.78;2.35;;;;;;;6.53;100.00;99484.50;4975769;28;20151;-72
2023/04/13 02:53:18;;;;;;;10.85;2.25;;;;;;;6.55;100.00;99488.88;4975333;28;20035;-70
2023/04/13 02:55:43;;;;;;;4.65;2.10;;;;;;;6.55;100.00;99491.50;4974457;28;20031;-70
2023/04/13 02:58:10;;;;;;;7.72;2.55;;;;;;;6.55;100.00;99499.38;4974148;28;20098;-70
2023/04/13 03:00:37;;;;;;;5.00;2.33;;;;;;;6.55;100.00;99505.50;4974167;28;20476;-71
2023/04/13 03:03:03;;;;;;;4.13;1.92;;;;;;;6.56;100.00;99502.03;4974457;28;20027;-70
2023/04/13 03:05:32;;;;;;;5.65;2.28;;;;;;;6.52;100.00;99508.13;4956743;28;20400;-69
2023/04/13 03:07:58;;;;;;;3.80;1.90;;;;;;;6.54;100.00;99516.88;4974185;28;20082;-70
2023/04/13 03:10:23;;;;;;;7.30;2.22;;;;;;;6.53;100.00;99517.75;4940853;28;20058;-70
2023/04/13 03:12:49;;;;;;;3.53;1.90;;;;;;;6.51;100.00;99530.00;4973969;28;20059;-70
2023/04/13 03:15:17;;;;;;;3.15;1.80;;;;;;;6.45;100.00;99520.31;4974049;28;20027;-68
2023/04/13 03:17:43;;;;;;;4.32;1.75;;;;;;;6.44;100.00;99529.06;4973857;28;20467;-69
2023/04/13 03:20:11;;;;;;;3.35;1.60;;;;;;;6.43;99.91;99532.56;4974056;28;20015;-70
2023/04/13 03:22:38;;;;;;;2.40;1.40;;;;;;;6.41;99.59;99541.28;4974220;28;20023;-70
2023/04/13 03:25:04;;;;;;;6.00;1.90;;;;;;;6.36;99.43;99543.00;4974165;28;20094;-71
2023/04/13 03:27:30;;;;;;;4.75;1.67;;;;;;;6.30;99.33;99543.84;4973848;28;20054;-71
2023/04/13 03:29:55;;;;;;;3.30;1.70;;;;;;;6.30;99.02;99548.22;4974024;28;20114;-71
2023/04/13 03:32:21;;;;;;;3.45;1.70;;;;;;;6.27;99.53;99562.19;4956603;28;20031;-71
2023/04/13 03:34:46;;;;;;;4.68;1.90;;;;;;;6.24;99.98;99562.16;4976282;28;20037;-71
2023/04/13 03:37:12;;;;;;;5.57;2.28;;;;;;;6.22;99.86;99566.53;4977841;28;20058;-71
2023/04/13 03:39:40;;;;;;;5.07;2.20;;;;;;;6.20;100.00;99565.63;4977578;28;20476;-72
2023/04/13 03:42:06;;;;;;;6.32;2.53;;;;;;;6.20;100.00;99571.75;4977726;28;20085;-71
2023/04/13 03:44:32;;;;;;;6.18;2.50;;;;;;;6.18;100.00;99565.63;4976459;28;20117;-72
2023/04/13 03:46:57;;;;;;;8.52;2.65;;;;;;;6.19;100.00;99572.63;4977567;28;20023;-72
2023/04/13 03:49:23;;;;;;;8.45;2.60;;;;;;;6.18;100.00;99577.88;4977633;28;20043;-72
2023/04/13 03:51:48;;;;;;;6.82;2.40;;;;;;;6.19;100.00;99577.88;4977761;28;20037;-72
2023/04/13 03:54:14;;;;;;;5.20;2.97;;;;;;;6.19;100.00;99584.84;4977576;28;20077;-72
2023/04/13 03:56:39;;;;;;;6.20;2.90;;;;;;;6.16;100.00;99583.06;4977442;28;20485;-72
2023/04/13 03:59:05;;;;;;;6.65;2.90;;;;;;;6.13;100.00;99590.94;4977729;28;20054;-72
2023/04/13 04:01:31;;;;;;;6.43;3.08;;;;;;;6.16;100.00;99595.31;4977273;28;20047;-72
2023/04/13 04:03:56;;;;;;;8.77;3.30;;;;;;;6.14;100.00;99597.06;4977493;28;20039;-72
2023/04/13 04:06:26;;;;;;;7.53;3.20;;;;;;;6.14;100.00;99605.81;4977313;28;20026;-72
2023/04/13 04:08:51;;;;;;;5.85;3.17;;;;;;;6.13;100.00;99604.06;4977024;28;20042;-72
2023/04/13 04:11:17;;;;;;;7.57;3.40;;;;;;;6.10;100.00;99598.78;4976999;28;20027;-72
2023/04/13 04:13:43;;;;;;;8.48;3.70;;;;;;;6.15;100.00;99609.31;4977091;28;20034;-72
2023/04/13 04:16:10;;;;;;;8.15;3.90;;;;;;;6.14;100.00;99612.78;4959362;28;20054;-72
2023/04/13 04:18:36;;;;;;;10.77;3.65;;;;;;;6.14;100.00;99626.78;4977110;28;20098;-72
2023/04/13 04:21:05;;;;;;;9.77;3.70;;;;;;;6.13;100.00;99640.78;4977034;28;20481;-71
2023/04/13 04:23:33;;;;;;;8.18;3.60;;;;;;;6.11;100.00;99639.84;4976973;28;20062;-71
2023/04/13 04:26:01;;;;;;;8.25;3.55;;;;;;;6.12;100.00;99641.59;4977065;28;20022;-72
2023/04/13 04:28:29;;;;;;;8.48;4.00;;;;;;;6.11;100.00;99644.22;4959469;28;20031;-71
2023/04/13 04:30:54;;;;;;;10.65;3.42;;;;;;;6.09;100.00;99643.34;4976526;28;20039;-71
2023/04/13 04:33:23;;;;;;;7.90;3.75;;;;;;;6.07;100.00;99645.94;4976491;28;20035;-71
2023/04/13 04:35:50;;;;;;;8.00;3.78;;;;;;;6.05;100.00;99644.19;4959704;28;20083;-71
2023/04/13 04:38:16;;;;;;;6.38;3.50;;;;;;;6.03;100.00;99654.63;4975905;28;20130;-72
2023/04/13 04:40:45;;;;;;;10.10;3.28;;;;;;;6.01;100.00;99651.13;4976642;28;20027;-72
2023/04/13 04:43:12;;;;;;;7.32;3.40;;;;;;;5.99;100.00;99661.59;4977042;28;20030;-72
2023/04/13 04:45:40;;;;;;;6.90;3.25;;;;;;;5.98;100.00;99666.84;4960832;28;20041;-71
2023/04/13 04:48:06;;;;;;;10.20;3.63;;;;;;;5.93;100.00;99660.66;4984233;28;20031;-72
2023/04/13 04:50:32;;;;;;;9.15;3.78;;;;;;;5.95;100.00;99672.94;4987233;28;20026;-72
2023/04/13 04:52:58;;;;;;;9.95;3.85;;;;;;;5.96;100.00;99679.06;4981193;28;20033;-72
2023/04/13 04:55:23;;;;;;;9.02;3.58;;;;;;;5.92;100.00;99674.66;4976920;28;20050;-73
2023/04/13 04:57:48;;;;;;;8.23;3.65;;;;;;;5.91;100.00;99683.31;4976458;28;20023;-72
2023/04/13 05:00:15;;;;;;;9.02;3.70;;;;;;;5.91;100.00;99688.56;4976422;28;20027;-72
2023/04/13 05:02:42;;;;;;;9.73;4.15;;;;;;;5.90;100.00;99690.31;4976521;28;20392;-72
2023/04/13 05:05:08;;;;;;;7.20;3.67;;;;;;;5.89;100.00;99685.06;4976131;28;20516;-71
2023/04/13 05:07:33;;;;;;;10.27;4.18;;;;;;;5.90;100.00;99695.53;4976288;28;20027;-72
2023/04/13 05:09:59;;;;;;;9.65;4.32;;;;;;;5.92;100.00;99699.13;4976181;28;20030;-72
2023/04/13 05:12:24;;;;;;;10.38;5.00;;;;;;;5.94;100.00;99700.00;4976082;28;20035;-72
2023/04/13 05:14:50;;;;;;;7.95;3.97;;;;;;;5.98;100.00;99695.66;4976249;28;20027;-71
2023/04/13 05:17:16;;;;;;;8.45;4.70;;;;;;;6.00;100.00;99701.81;4955215;28;20051;-72
2023/04/13 05:19:43;;;;;;;7.57;4.50;;;;;;;5.98;100.00;99709.66;4956900;28;20030;-72
2023/04/13 05:22:10;;;;;;;11.57;4.75;;;;;;;5.99;100.00;99687.81;4956444;28;20101;-72
2023/04/13 05:24:36;;;;;;;8.63;4.53;;;;;;;5.99;100.00;99698.28;4956869;28;20034;-73
2023/04/13 05:27:01;;;;;;;8.68;4.72;;;;;;;6.02;100.00;99705.34;4955276;28;20031;-72
2023/04/13 05:29:27;;;;;;;10.73;4.80;;;;;;;6.03;100.00;99714.94;4956384;28;20031;-72
2023/04/13 05:31:52;;;;;;;6.93;4.10;;;;;;;6.08;100.00;99718.53;4956626;28;20031;-71
2023/04/13 05:34:18;;;;;;;10.95;4.38;;;;;;;6.17;100.00;99716.00;4956415;28;20027;-73
2023/04/13 05:36:43;;;;;;;9.90;4.60;;;;;;;6.24;100.00;99720.41;4956486;28;20024;-72
2023/04/13 05:39:09;;;;;;;9.57;4.15;;;;;;;6.32;100.00;99725.75;4955951;28;20035;-72
2023/04/13 05:41:35;;;;;;;7.28;4.10;;;;;;;6.41;100.00;99719.72;4956231;28;20267;-73
2023/04/13 05:44:00;;;;;;;9.95;4.03;;;;;;;6.44;100.00;99728.50;4956428;28;20053;-73
2023/04/13 05:46:26;;;;;;;8.63;3.70;;;;;;;6.47;100.00;99731.16;4956407;28;20481;-71
2023/04/13 05:48:52;;;;;;;7.63;3.50;;;;;;;6.52;100.00;99732.06;4956175;28;20553;-72
2023/04/13 05:51:18;;;;;;;7.43;3.08;;;;;;;6.61;100.00;99741.78;4955891;28;20102;-71
2023/04/13 05:53:44;;;;;;;7.78;3.10;;;;;;;6.64;100.00;99744.44;4954696;29;20054;-72
2023/04/13 05:56:09;;;;;;;7.97;2.97;;;;;;;6.71;100.00;99747.97;4956076;28;20047;-72
2023/04/13 05:58:35;;;;;;;8.30;3.03;;;;;;;6.68;100.00;99748.84;4954821;28;20046;-71
2023/04/13 06:01:00;;;;;;;9.05;2.92;;;;;;;6.74;100.00;99756.75;4955771;28;20469;-72
2023/04/13 06:03:28;;;;;;;5.65;2.97;;;;;;;6.73;100.00;99764.63;4955898;28;20031;-71
2023/04/13 06:05:53;;;;;;;7.15;2.60;;;;;;;6.74;100.00;99767.25;4955669;28;20031;-72
2023/04/13 06:08:20;;;;;;;6.35;2.63;;;;;;;6.74;100.00;99772.50;4955448;28;20103;-72
2023/04/13 06:10:47;;;;;;;4.78;2.50;;;;;;;6.74;100.00;99787.38;4955707;28;20023;-71
2023/04/13 06:13:12;;;;;;;6.20;2.60;;;;;;;6.70;100.00;99789.09;4955617;28;20395;-71
2023/04/13 06:15:38;;;;;;;6.75;2.55;;;;;;;6.67;100.00;99790.81;4956261;28;20019;-71
2023/04/13 06:18:03;;;;;;;4.18;2.47;;;;;;;6.68;100.00;99800.44;4957515;28;20027;-71
2023/04/13 06:20:30;;;;;;;4.95;2.40;;;;;;;6.65;100.00;99803.94;4974598;28;20034;-71
2023/04/13 06:22:56;;;;;;;8.68;2.67;;;;;;;6.68;100.00;99805.69;4975058;28;20097;-71
2023/04/13 06:25:21;;;;;;;7.20;2.70;;;;;;;6.68;100.00;99792.56;4974715;28;20027;-71
2023/04/13 06:27:48;;;;;;;5.78;2.53;;;;;;;6.68;100.00;99796.09;4974739;28;20480;-71
2023/04/13 06:30:14;;;;;;;6.07;2.80;;;;;;;6.71;100.00;99811.84;4974803;28;20027;-71
2023/04/13 06:32:40;;;;;;;4.20;2.95;;;;;;;6.75;100.00;99802.25;4974409;28;20039;-72
2023/04/13 06:35:05;;;;;;;7.32;2.70;;;;;;;6.76;100.00;99812.78;4974436;28;20043;-71
2023/04/13 06:37:33;;;;;;;7.50;2.90;;;;;;;6.80;100.00;99818.06;4974717;28;20025;-70
2023/04/13 06:40:04;;;;;;;4.95;2.75;;;;;;;6.82;100.00;99816.34;4974183;28;20037;-71
2023/04/13 06:42:29;;;;;;;9.57;3.00;;;;;;;6.82;100.00;99825.09;4974410;28;20035;-72
2023/04/13 06:44:55;;;;;;;5.22;2.58;;;;;;;6.84;100.00;99831.22;4974391;28;20030;-72
2023/04/13 06:47:20;;;;;;;9.30;3.25;;;;;;;6.83;100.00;99837.34;4974350;28;20424;-71
2023/04/13 06:49:46;;;;;;;6.60;2.85;;;;;;;6.85;100.00;99843.53;4974304;28;20034;-72
2023/04/13 06:52:11;;;;;;;6.03;2.70;;;;;;;6.91;100.00;99832.19;4956947;28;20042;-72
2023/04/13 06:54:36;;;;;;;5.25;2.80;;;;;;;6.92;100.00;99834.81;4957097;28;20073;-72
2023/04/13 06:57:03;;;;;;;9.90;3.03;;;;;;;6.97;100.00;99845.34;4974249;28;20033;-71
2023/04/13 06:59:29;;;;;;;5.93;2.80;;;;;;;7.00;100.00;99848.91;4974179;28;20058;-72
2023/04/13 07:01:54;;;;;;;4.82;2.53;;;;;;;7.04;100.00;99847.19;4974111;28;20130;-72
2023/04/13 07:04:20;;;;;;;10.35;3.22;;;;;;;7.06;100.00;99853.31;4974198;28;20035;-72
2023/04/13 07:06:45;;;;;;;8.82;2.80;;;;;;;7.07;100.00;99857.72;4974255;28;20023;-71
2023/04/13 07:09:11;;;;;;;6.78;2.78;;;;;;;7.09;100.00;99868.22;4956201;28;20085;-72
2023/04/13 07:11:36;;;;;;;7.53;3.38;;;;;;;7.12;100.00;99861.25;4973963;28;20114;-72
2023/04/13 07:14:02;;;;;;;9.88;3.10;;;;;;;7.13;100.00;99865.66;4974147;28;20421;-77
2023/04/13 07:16:28;;;;;;;13.15;3.20;;;;;;;7.18;99.84;99881.44;4973189;28;20046;-73
2023/04/13 07:18:53;;;;;;;6.47;3.00;;;;;;;7.20;99.64;99883.22;4973923;28;20037;-72
2023/04/13 07:21:19;;;;;;;5.68;2.90;;;;;;;7.25;98.72;99880.63;4973946;28;20480;-74
2023/04/13 07:23:44;;;;;;;8.07;2.97;;;;;;;7.27;99.09;99890.28;4973928;28;20034;-75
2023/04/13 07:26:14;;;;;;;7.18;3.10;;;;;;;7.34;99.36;99887.72;4973906;28;20079;-75
2023/04/13 07:28:39;;;;;;;10.32;3.33;;;;;;;7.36;99.99;99904.38;4973852;28;20074;-73
2023/04/13 07:31:05;;;;;;;7.30;2.83;;;;;;;7.38;99.34;99894.75;4973706;28;20023;-74
2023/04/13 07:33:31;;;;;;;10.05;3.03;;;;;;;7.39;99.32;99910.53;4973861;28;20058;-71
2023/04/13 07:35:56;;;;;;;8.38;3.25;;;;;;;7.42;98.33;99902.69;4974060;28;20059;-70
2023/04/13 07:38:21;;;;;;;7.65;3.50;;;;;;;7.45;98.30;99913.22;4973645;28;20031;-71
2023/04/13 07:40:47;;;;;;;9.20;3.10;;;;;;;7.49;97.76;99920.28;4974060;28;20034;-73
2023/04/13 07:43:12;;;;;;;7.13;3.10;;;;;;;7.51;98.18;99926.41;4956541;28;20038;-72
2023/04/13 07:45:38;;;;;;;10.65;3.45;;;;;;;7.55;97.75;99922.06;4956514;28;20038;-71
2023/04/13 07:48:04;;;;;;;8.32;2.97;;;;;;;7.59;97.25;99926.47;4973625;28;20110;-72
2023/04/13 07:50:30;;;;;;;10.65;3.45;;;;;;;7.62;97.33;99938.75;4974083;28;20031;-73
2023/04/13 07:52:55;;;;;;;10.57;3.25;;;;;;;7.66;98.17;99943.16;4974366;28;20066;-72
2023/04/13 07:55:20;;;;;;;8.45;3.00;;;;;;;7.70;97.09;99943.19;4973963;28;20396;-72
2023/04/13 07:57:46;;;;;;;12.18;3.80;;;;;;;7.78;96.35;99946.78;4973897;28;20042;-71
2023/04/13 08:00:13;;;;;;;9.45;3.13;;;;;;;7.78;97.22;99945.91;4956450;28;20057;-70
2023/04/13 08:02:38;;;;;;;9.30;3.22;;;;;;;7.87;95.57;99958.22;4973507;28;20495;-72
2023/04/13 08:05:04;;;;;;;11.32;3.17;;;;;;;7.91;96.62;99952.13;4974019;28;20083;-70
2023/04/13 08:07:29;;;;;;;14.82;3.20;;;;;;;7.97;96.42;99955.69;4973496;28;20031;-72
2023/04/13 08:09:55;;;;;;;10.55;3.20;;;;;;;8.06;96.44;99962.78;4973464;28;20113;-71
2023/04/13 08:12:21;;;;;;;10.23;3.33;;;;;;;8.15;95.07;99964.56;4973428;28;20361;-72
2023/04/13 08:14:47;;;;;;;11.27;3.72;;;;;;;8.18;94.79;99967.22;4973729;28;20090;-73
2023/04/13 08:17:12;;;;;;;12.88;3.35;;;;;;;8.27;95.88;99972.56;4973147;28;20055;-72
2023/04/13 08:19:38;;;;;;;10.65;3.50;;;;;;;8.39;95.95;99970.00;4973602;28;20117;-71
2023/04/13 08:22:03;;;;;;;13.80;3.70;;;;;;;8.53;93.14;99978.88;4975908;28;20023;-71
2023/04/13 08:24:29;;;;;;;12.77;4.28;;;;;;;8.62;92.75;99972.75;4977147;28;20029;-72
2023/04/13 08:26:57;;;;;;;14.45;4.28;;;;;;;8.69;93.05;99982.47;4976845;28;20065;-72
2023/04/13 08:29:24;;;;;;;11.85;3.53;;;;;;;8.76;92.55;99985.97;4976864;28;20033;-73
2023/04/13 08:31:49;;;;;;;14.55;3.60;;;;;;;8.81;90.88;99988.63;4976582;28;20114;-76
2023/04/13 08:34:16;;;;;;;12.80;3.20;;;;;;;8.88;89.28;99987.81;4976784;28;20444;-73
2023/04/13 08:36:42;;;;;;;14.10;3.40;;;;;;;8.92;89.23;99998.34;4976828;28;20481;-74
2023/04/13 08:39:09;;;;;;;11.60;3.65;;;;;;;9.01;89.86;100000.13;4976483;28;20019;-77
2023/04/13 08:41:39;;;;;;;16.52;3.58;;;;;;;9.10;89.04;100015.97;4976528;28;20484;-77
2023/04/13 08:44:06;;;;;;;14.18;3.30;;;;;;;9.16;88.17;100015.97;4976756;28;20097;-77
2023/04/13 08:46:33;;;;;;;11.52;3.15;;;;;;;9.16;86.72;100010.72;4976336;28;20026;-77
2023/04/13 08:49:00;;;;;;;15.73;3.45;;;;;;;9.16;86.87;100031.78;4976528;28;20054;-77
2023/04/13 08:51:28;;;;;;;10.82;3.05;;;;;;;9.18;85.86;100027.44;4976490;28;20026;-77
2023/04/13 08:53:54;;;;;;;17.00;3.22;;;;;;;9.25;85.98;100036.25;4959367;28;20027;-77
2023/04/13 08:56:21;;;;;;;17.60;3.55;;;;;;;9.29;84.02;100038.00;4976520;28;20042;-78
2023/04/13 08:58:49;;;;;;;11.18;3.47;;;;;;;9.33;84.37;100038.88;4976406;28;20102;-78
2023/04/13 09:01:15;;;;;;;15.45;3.40;;;;;;;9.39;84.46;100057.38;4976233;28;20444;-77
2023/04/13 09:04:04;;;;;;;13.63;3.38;;;;;;;9.47;83.19;100053.88;4976591;28;20376;-78
2023/04/13 09:06:34;;;;;;;13.20;3.38;;;;;;;9.58;81.68;100056.53;4965870;28;20039;-79
2023/04/13 09:09:04;;;;;;;12.80;3.25;;;;;;;9.84;81.83;100063.59;4976252;28;20033;-78
2023/04/13 09:11:30;;;;;;;17.88;3.47;;;;;;;10.08;81.29;100068.91;4975339;28;20130;-77
2023/04/13 09:13:56;;;;;;;11.52;3.10;;;;;;;10.25;80.06;100068.94;4976247;28;20055;-78
2023/04/13 09:16:21;;;;;;;11.50;2.85;;;;;;;10.34;78.82;100074.22;4974417;28;20536;-78
2023/04/13 09:18:56;;;;;;;9.93;2.92;;;;;;;10.39;78.89;100088.28;4975849;28;20039;-77
2023/04/13 09:21:34;;;;;;;10.82;2.90;;;;;;;10.44;75.60;100075.06;4958780;28;20129;-77
2023/04/13 09:24:17;;;;;;;9.95;2.80;;;;;;;10.57;76.72;100074.16;4976077;28;20100;-78
2023/04/13 09:26:46;;;;;;;10.20;2.78;;;;;;;10.61;76.07;100069.75;4976203;28;20073;-78
2023/04/13 09:29:20;;;;;;;13.27;2.80;;;;;;;10.59;76.58;100087.41;4976180;28;20049;-78
2023/04/13 09:31:46;;;;;;;15.85;3.58;;;;;;;10.51;74.05;100104.13;4975670;28;20034;-77
2023/04/13 09:34:13;;;;;;;11.77;2.75;;;;;;;10.39;74.49;100095.31;4975794;28;20442;-78
2023/04/13 09:36:40;;;;;;;10.50;2.92;;;;;;;10.26;75.60;100111.16;4975642;28;20030;-78
2023/04/13 09:39:06;;;;;;;9.38;2.78;;;;;;;10.25;75.27;100112.06;4975465;28;20027;-77
2023/04/13 09:41:39;;;;;;;7.95;2.78;;;;;;;10.35;75.23;100125.25;4975543;28;20027;-77
2023/04/13 09:44:19;;;;;;;13.60;2.53;;;;;;;10.34;74.96;100126.16;4958207;28;20435;-77
2023/04/13 09:46:56;;;;;;;13.55;2.70;;;;;;;10.30;75.69;100122.63;4958167;28;20441;-76
2023/04/13 09:49:22;;;;;;;11.88;3.42;;;;;;;10.23;75.29;100134.88;4975450;28;20027;-71
2023/04/13 09:51:47;;;;;;;8.15;2.63;;;;;;;10.10;74.75;100148.09;4975479;28;20084;-74
2023/04/13 09:54:20;;;;;;;10.82;2.83;;;;;;;9.99;74.98;100140.16;4975598;28;20027;-78
2023/04/13 09:56:50;;;;;;;13.07;3.10;;;;;;;9.95;74.70;100144.56;4975508;28;20035;-78
2023/04/13 09:59:17;;;;;;;14.23;3.20;;;;;;;9.92;75.18;100151.56;4975253;28;20373;-76
2023/04/13 10:01:43;;;;;;;11.32;2.83;;;;;;;9.93;74.76;100163.88;4974930;28;20495;-78
2023/04/13 10:04:09;;;;;;;11.30;3.10;;;;;;;9.95;74.95;100165.66;4958386;28;20037;-79
2023/04/13 10:06:39;;;;;;;14.15;3.00;;;;;;;9.93;74.25;100162.13;4975397;28;20027;-78
2023/04/13 10:09:04;;;;;;;15.55;3.20;;;;;;;9.91;76.11;100173.56;4974967;28;20027;-75
2023/04/13 10:11:36;;;;;;;12.30;2.90;;;;;;;9.82;77.97;100170.91;4975154;28;20069;-77
2023/04/13 10:14:08;;;;;;;12.10;3.08;;;;;;;9.70;80.33;100177.03;4975006;28;20037;-73
2023/04/13 10:17:04;;;;;;;12.93;3.20;;;;;;;9.67;80.76;100190.19;4974642;28;20046;-71
2023/04/13 10:19:36;;;;;;;16.40;3.22;;;;;;;9.61;82.27;100192.81;4974902;28;20047;-72
2023/04/13 10:22:03;;;;;;;16.05;3.75;;;;;;;9.66;82.67;100188.44;4974869;28;20580;-76
2023/04/13 10:24:28;;;;;;;19.73;3.80;;;;;;;9.72;82.87;100201.63;4974632;28;20027;-73
2023/04/13 10:26:55;;;;;;;10.68;3.25;;;;;;;9.76;79.44;100203.41;4975121;28;20042;-77
2023/04/13 10:29:31;;;;;;;13.52;3.65;;;;;;;9.86;81.06;100199.06;4957975;28;20034;-78
2023/04/13 10:32:01;;;;;;;14.18;3.65;;;;;;;10.01;79.92;100207.03;4974576;28;20163;-77
2023/04/13 10:34:29;;;;;;;14.80;3.75;;;;;;;10.11;78.29;100210.59;4974785;28;20058;-77
2023/04/13 10:36:57;;;;;;;15.50;3.58;;;;;;;10.09;77.95;100205.28;4974686;28;20051;-77
2023/04/13 10:39:34;;;;;;;13.15;3.58;;;;;;;10.04;77.11;100218.47;4974661;28;20077;-79
2023/04/13 10:42:05;;;;;;;14.70;4.68;;;;;;;9.97;75.95;100223.72;4974816;28;20065;-77
2023/04/13 10:45:03;;;;;;;11.13;4.40;;;;;;;10.01;78.26;100226.38;4956676;28;20050;-77
2023/04/13 10:47:35;;;;;;;13.45;3.75;;;;;;;10.02;75.44;100222.88;4931200;28;20444;-78
2023/04/13 10:50:01;;;;;;;17.10;4.22;;;;;;;10.13;74.95;100232.56;4974499;28;20034;-72
2023/04/13 10:52:27;;;;;;;14.27;3.80;;;;;;;10.24;75.44;100233.50;4974212;28;20045;-68
2023/04/13 10:54:53;;;;;;;9.18;3.70;;;;;;;10.36;74.91;100240.56;4974224;28;20027;-74
2023/04/13 10:57:19;;;;;;;19.95;3.85;;;;;;;10.45;74.81;100248.53;4957092;28;20506;-79
2023/04/13 10:59:55;;;;;;;14.32;3.97;;;;;;;10.47;74.18;100241.47;4974152;28;20110;-78
2023/04/13 11:02:24;;;;;;;14.52;3.40;;;;;;;10.47;73.83;100252.03;4974136;28;20046;-77
2023/04/13 11:04:50;;;;;;;11.23;3.25;;;;;;;10.41;72.98;100254.69;4974191;28;20034;-78
2023/04/13 11:07:18;;;;;;;10.73;3.42;;;;;;;10.36;74.22;100259.94;4956920;28;20034;-77
2023/04/13 11:09:46;;;;;;;9.93;2.90;;;;;;;10.33;74.18;100259.06;4956691;28;20034;-76
2023/04/13 11:12:12;;;;;;;13.85;3.20;;;;;;;10.36;73.29;100259.06;4974099;28;20031;-78
2023/04/13 11:14:38;;;;;;;14.70;3.10;;;;;;;10.43;73.56;100264.38;4974259;28;20113;-78
2023/04/13 11:17:11;;;;;;;10.40;3.33;;;;;;;10.62;74.94;100262.66;4973557;28;20053;-76
2023/04/13 11:19:47;;;;;;;10.32;2.75;;;;;;;10.80;74.62;100269.72;4974057;28;20028;-77
2023/04/13 11:22:17;;;;;;;12.80;2.67;;;;;;;11.00;74.18;100262.63;4973644;28;20031;-74
2023/04/13 11:24:43;;;;;;;10.65;2.70;;;;;;;11.21;73.24;100264.38;4973864;28;20507;-75
2023/04/13 11:27:23;;;;;;;10.85;2.88;;;;;;;11.26;71.84;100270.56;4974150;28;20106;-77
2023/04/13 11:30:04;;;;;;;16.77;2.88;;;;;;;11.24;70.98;100279.38;4973995;28;20097;-75
2023/04/13 11:32:34;;;;;;;13.10;2.97;;;;;;;11.26;71.57;100262.63;4973919;28;20109;-76
2023/04/13 11:35:10;;;;;;;10.75;2.85;;;;;;;11.48;71.93;100270.53;4973986;28;20034;-75
2023/04/13 11:37:38;;;;;;;11.15;2.88;;;;;;;11.82;70.21;100273.97;4973872;28;20034;-76
2023/04/13 11:40:09;;;;;;;9.50;3.00;;;;;;;12.13;68.22;100277.41;4973682;28;20469;-76